Time;durP1;ratioP1;P1;durP2;ratioP2;P2;SDS_P1;SDS_P2;PMS_P1;PMS_P2;Temp;Humidity;BMP_temperature;BMP_pressure;BME280_temperature;BME280_humidity;BME280_pressure;Samples;Min_cycle;Max_cycle;Signal;HPM_P1;HPM_P2
2023/12/29 07:50:08;;;;;;;;;;;;;;;10.53;74.97;97353.06;4273864;27;10197;-61
2023/12/29 07:52:11;;;;;;;;;;;;;;;10.80;74.75;97349.84;4265929;27;5629;-61
2023/12/29 07:54:13;;;;;;;;;;;;;;;11.02;74.01;97354.22;4265290;27;5716;-60
2023/12/29 07:56:16;;;;;;;;;;;;;;;11.21;73.71;97357.31;4265749;27;6327;-61
2023/12/29 07:58:19;;;;;;;;;;;;;;;11.34;73.33;97358.31;4265618;27;5638;-61
2023/12/29 08:00:23;;;;;;;;;;;;;;;11.48;73.07;97358.50;4267499;27;5621;-61
2023/12/29 08:02:25;;;;;;;;;;;;;;;11.57;72.54;97355.56;4266271;27;5613;-61
2023/12/29 08:04:30;;;;;;;;;;;;;;;11.65;72.65;97349.31;4273785;27;5702;-62
2023/12/29 08:06:34;;;;;;;;;;;;;;;11.73;72.39;97354.50;4273645;27;5677;-62
2023/12/29 08:08:37;;;;;;;;;;;;;;;11.79;71.78;97368.84;4265272;27;5673;-62
2023/12/29 08:10:40;;;;;;;;;;;;;;;11.83;71.81;97355.06;4266648;27;5737;-62
2023/12/29 08:12:44;;;;;;;;;;;;;;;11.89;71.74;97356.13;4266475;27;5098;-62
2023/12/29 08:14:47;;;;;;;;;;;;;;;11.93;71.69;97349.47;4265362;27;5704;-62
2023/12/29 08:16:50;;;;;;;;;;;;;;;11.95;71.23;97348.25;4271980;27;5592;-62
2023/12/29 08:18:53;;;;;;;;;;;;;;;11.98;71.07;97359.50;4268034;27;5645;-62
2023/12/29 08:20:55;;;;;;;;;;;;;;;12.02;71.03;97364.25;4268797;27;5736;-62
2023/12/29 08:23:02;;;;;;;;;;;;;;;12.05;71.08;97357.75;4265601;27;5858;-62
2023/12/29 08:25:06;;;;;;;;;;;;;;;12.06;70.70;97356.72;4274179;27;5822;-62
2023/12/29 08:27:10;;;;;;;;;;;;;;;12.06;70.58;97349.59;4273249;27;5806;-61
2023/12/29 08:29:12;;;;;;;;;;;;;;;12.06;70.45;97340.81;4265463;27;5736;-65
2023/12/29 08:31:16;;;;;;;;;;;;;;;12.06;70.43;97336.34;4265026;27;5637;-61
2023/12/29 08:33:18;;;;;;;;;;;;;;;12.06;70.29;97339.00;4276050;27;5591;-62
2023/12/29 08:35:21;;;;;;;;;;;;;;;12.06;70.32;97339.00;4273366;27;5571;-71
2023/12/29 08:37:24;;;;;;;;;;;;;;;12.07;70.02;97337.97;4256496;27;5836;-62
2023/12/29 08:39:28;;;;;;;;;;;;;;;12.08;70.25;97333.50;4275626;27;5881;-62
2023/12/29 08:41:30;;;;;;;;;;;;;;;12.07;70.07;97343.28;4268611;27;5623;-65
2023/12/29 08:43:35;;;;;;;;;;;;;;;12.07;69.62;97345.13;4274871;27;6038;-62
2023/12/29 08:45:38;;;;;;;;;;;;;;;12.07;69.51;97350.41;4267499;27;5756;-63
2023/12/29 08:47:41;;;;;;;;;;;;;;;12.08;69.49;97350.22;4265811;27;5563;-61
2023/12/29 08:49:45;;;;;;;;;;;;;;;12.10;69.44;97348.19;4268894;27;5572;-62
2023/12/29 08:51:48;;;;;;;;;;;;;;;12.13;69.27;97336.44;4255001;27;5499;-61
2023/12/29 08:53:51;;;;;;;;;;;;;;;12.14;69.31;97344.19;4260940;27;5575;-66
2023/12/29 08:55:55;;;;;;;;;;;;;;;12.14;69.04;97349.47;4251670;27;5838;-65
2023/12/29 08:57:58;;;;;;;;;;;;;;;12.14;69.21;97338.88;4250412;27;5571;-64
2023/12/29 09:00:02;;;;;;;;;;;;;;;12.15;68.88;97335.22;4248571;27;5102;-64
2023/12/29 09:02:06;;;;;;;;;;;;;;;12.18;68.85;97350.72;4261293;27;5721;-64
2023/12/29 09:04:08;;;;;;;;;;;;;;;12.19;68.96;97356.84;4259330;27;5669;-62
2023/12/29 09:06:11;;;;;;;;;;;;;;;12.19;68.94;97355.03;4256910;27;5625;-64
2023/12/29 09:08:16;;;;;;;;;;;;;;;12.20;68.79;97358.50;4250886;27;5586;-65
2023/12/29 09:10:19;;;;;;;;;;;;;;;12.17;68.57;97354.41;4252643;27;5776;-70
2023/12/29 09:12:22;;;;;;;;;;;;;;;12.17;68.50;97354.41;4265464;27;5820;-75
2023/12/29 09:14:25;;;;;;;;;;;;;;;12.19;68.29;97359.50;4260467;27;5675;-66
2023/12/29 09:16:28;;;;;;;;;;;;;;;12.20;68.19;97361.16;4254453;27;5669;-64
2023/12/29 09:18:31;;;;;;;;;;;;;;;12.21;68.53;97371.56;4252504;27;5673;-64
2023/12/29 09:20:36;;;;;;;;;;;;;;;12.20;68.06;97361.16;4261124;27;5673;-64
2023/12/29 09:22:38;;;;;;;;;;;;;;;12.20;67.92;97361.97;4251350;27;5590;-65
2023/12/29 09:24:43;;;;;;;;;;;;;;;12.23;68.20;97366.91;4253759;27;5595;-65
2023/12/29 09:26:46;;;;;;;;;;;;;;;12.23;68.12;97361.59;4253361;27;5609;-63
2023/12/29 09:28:50;;;;;;;;;;;;;;;12.24;68.01;97357.13;4255278;27;5673;-65
2023/12/29 09:30:53;;;;;;;;;;;;;;;12.27;67.69;97366.53;4263446;27;5664;-68
2023/12/29 09:32:55;;;;;;;;;;;;;;;12.29;67.64;97367.16;4256529;27;5699;-72
2023/12/29 09:34:58;;;;;;;;;;;;;;;12.30;67.65;97374.09;4265414;27;5673;-66
2023/12/29 09:37:01;;;;;;;;;;;;;;;12.31;67.53;97373.06;4251927;27;5641;-72
2023/12/29 09:39:04;;;;;;;;;;;;;;;12.32;67.44;97380.00;4259835;27;5738;-70
2023/12/29 09:41:12;;;;;;;;;;;;;;;12.32;67.67;97385.31;4250421;27;6239;-69
2023/12/29 09:43:15;;;;;;;;;;;;;;;12.32;67.25;97377.38;4262684;27;5702;-71
2023/12/29 09:45:24;;;;;;;;;;;;;;;12.33;67.23;97379.81;4264466;27;6382;-72
2023/12/29 09:47:30;;;;;;;;;;;;;;;12.35;67.17;97380.47;4260840;27;5579;-67
2023/12/29 09:49:39;;;;;;;;;;;;;;;12.37;67.30;97380.28;4254956;27;5661;-74
2023/12/29 09:51:43;;;;;;;;;;;;;;;12.37;67.38;97386.41;4250178;27;5698;-67
2023/12/29 09:53:47;;;;;;;;;;;;;;;12.39;67.23;97383.56;4249482;27;5673;-72
2023/12/29 09:55:49;;;;;;;;;;;;;;;12.40;67.15;97380.72;4253263;27;5567;-74
2023/12/29 09:57:53;;;;;;;;;;;;;;;12.41;66.94;97386.84;4253435;27;5593;-74
2023/12/29 09:59:57;;;;;;;;;;;;;;;12.41;66.68;97384.19;4257440;27;5687;-73
2023/12/29 10:02:03;;;;;;;;;;;;;;;12.41;66.78;97384.19;4255681;27;5692;-73
2023/12/29 10:04:07;;;;;;;;;;;;;;;12.41;66.86;97382.34;4251059;27;5658;-74
2023/12/29 10:06:14;;;;;;;;;;;;;;;12.42;67.06;97372.56;4260542;27;5659;-75
2023/12/29 10:08:16;;;;;;;;;;;;;;;12.43;66.88;97371.56;4253349;27;5786;-70
2023/12/29 10:10:23;;;;;;;;;;;;;;;12.44;66.82;97370.53;4250401;27;5662;-69
2023/12/29 10:12:28;;;;;;;;;;;;;;;12.44;66.76;97371.34;4252673;27;5650;-72
2023/12/29 10:14:42;;;;;;;;;;;;;;;12.45;66.66;97369.53;4257872;27;5590;-71
2023/12/29 10:16:51;;;;;;;;;;;;;;;12.44;66.62;97370.53;4252588;27;5706;-70
2023/12/29 10:19:06;;;;;;;;;;;;;;;12.42;66.45;97372.56;4250963;27;5703;-62
2023/12/29 10:21:18;;;;;;;;;;;;;;;12.41;66.25;97362.97;4255907;27;5564;-67
2023/12/29 10:23:27;;;;;;;;;;;;;;;12.41;66.26;97357.66;4258567;27;5105;-69
2023/12/29 10:25:31;;;;;;;;;;;;;;;12.41;66.50;97357.66;4253585;27;5678;-73
2023/12/29 10:27:35;;;;;;;;;;;;;;;12.40;66.18;97348.91;4252479;27;6527;-65
2023/12/29 10:29:38;;;;;;;;;;;;;;;12.39;66.22;97346.44;4252944;27;7399;-66
2023/12/29 10:31:41;;;;;;;;;;;;;;;12.39;66.23;97349.09;4248475;27;5709;-64
2023/12/29 10:33:50;;;;;;;;;;;;;;;12.39;66.11;97346.44;4258125;27;5587;-64
2023/12/29 10:36:02;;;;;;;;;;;;;;;12.39;66.15;97341.13;4252145;27;5699;-62
2023/12/29 10:38:12;;;;;;;;;;;;;;;12.41;65.96;97333.81;4249522;27;5613;-62
2023/12/29 10:40:19;;;;;;;;;;;;;;;12.43;65.96;97332.59;4260238;27;5559;-64
2023/12/29 10:42:22;;;;;;;;;;;;;;;12.46;66.21;97332.22;4258003;27;6372;-66
2023/12/29 10:44:25;;;;;;;;;;;;;;;12.48;66.07;97324.91;4253180;27;5752;-63
2023/12/29 10:46:28;;;;;;;;;;;;;;;12.49;65.83;97339.81;4260827;27;6146;-67
2023/12/29 10:48:31;;;;;;;;;;;;;;;12.50;65.70;97332.66;4255963;27;5560;-64
2023/12/29 10:50:44;;;;;;;;;;;;;;;12.51;65.92;97334.31;4255949;27;6325;-70
2023/12/29 10:52:49;;;;;;;;;;;;;;;12.56;65.72;97325.75;4257512;27;5728;-63
2023/12/29 10:55:05;;;;;;;;;;;;;;;12.59;65.89;97320.91;4259235;27;6315;-62
2023/12/29 10:57:09;;;;;;;;;;;;;;;12.61;65.84;97318.88;4254067;27;5854;-77
2023/12/29 10:59:13;;;;;;;;;;;;;;;12.65;65.89;97316.66;4251259;27;6284;-83
2023/12/29 11:01:19;;;;;;;;;;;;;;;12.67;65.60;97323.38;4260168;27;5559;-69
2023/12/29 11:03:23;;;;;;;;;;;;;;;12.66;65.51;97321.75;4255204;27;5704;-63
2023/12/29 11:05:26;;;;;;;;;;;;;;;12.65;65.50;97325.41;4254618;27;5614;-63
2023/12/29 11:07:33;;;;;;;;;;;;;;;12.67;65.42;97314.63;4256306;27;5880;-64
2023/12/29 11:09:37;;;;;;;;;;;;;;;12.68;65.74;97303.81;4253243;27;5663;-65
2023/12/29 11:11:40;;;;;;;;;;;;;;;12.69;65.62;97302.00;4254924;27;5657;-68
2023/12/29 11:13:43;;;;;;;;;;;;;;;12.72;65.69;97299.78;4252529;27;5777;-65
2023/12/29 11:15:47;;;;;;;;;;;;;;;12.73;65.56;97300.59;4256894;27;5114;-63
2023/12/29 11:17:52;;;;;;;;;;;;;;;12.73;65.37;97298.75;4253816;27;5563;-65
2023/12/29 11:19:55;;;;;;;;;;;;;;;12.75;65.25;97287.94;4253308;27;5725;-65
2023/12/29 11:21:59;;;;;;;;;;;;;;;12.75;65.43;97288.75;4253160;27;5592;-67
2023/12/29 11:24:02;;;;;;;;;;;;;;;12.76;65.21;97285.09;4256994;27;5579;-66
2023/12/29 11:26:07;;;;;;;;;;;;;;;12.75;65.19;97280.81;4262324;27;5853;-67
2023/12/29 11:28:13;;;;;;;;;;;;;;;12.77;65.27;97270.81;4255520;27;5597;-65
2023/12/29 11:30:17;;;;;;;;;;;;;;;12.77;65.02;97281.44;4247421;27;5813;-66
2023/12/29 11:32:28;;;;;;;;;;;;;;;12.78;64.96;97276.94;4256982;27;5826;-64
2023/12/29 11:34:36;;;;;;;;;;;;;;;12.77;65.15;97270.81;4259696;27;5704;-65
2023/12/29 11:36:44;;;;;;;;;;;;;;;12.77;65.17;97275.31;4250773;27;5654;-63
2023/12/29 11:38:58;;;;;;;;;;;;;;;12.79;64.74;97263.47;4259829;27;5555;-65
2023/12/29 11:41:11;;;;;;;;;;;;;;;12.79;65.11;97258.16;4261288;27;5584;-65
2023/12/29 11:43:18;;;;;;;;;;;;;;;12.80;64.84;97249.22;4260489;27;5658;-69
2023/12/29 11:45:31;;;;;;;;;;;;;;;12.81;64.91;97245.53;4236401;27;5670;-65
2023/12/29 11:47:38;;;;;;;;;;;;;;;12.83;64.88;97242.69;4256539;27;5709;-67
2023/12/29 11:49:59;;;;;;;;;;;;;;;12.83;64.68;97248.00;4244254;27;5590;-70
2023/12/29 11:52:02;;;;;;;;;;;;;;;12.85;64.31;97242.50;4249823;27;5681;-68
2023/12/29 11:54:07;;;;;;;;;;;;;;;12.83;64.70;97237.38;4249564;27;5594;-65
2023/12/29 11:56:17;;;;;;;;;;;;;;;12.83;64.67;97237.38;4249315;27;5872;-67
2023/12/29 11:58:28;;;;;;;;;;;;;;;12.83;64.49;97243.50;4256793;27;5564;-71
2023/12/29 12:00:43;;;;;;;;;;;;;;;12.86;64.41;97247.59;4261922;27;5544;-77
2023/12/29 12:02:49;;;;;;;;;;;;;;;12.85;64.23;97247.81;4256858;27;6572;-71
2023/12/29 12:04:52;;;;;;;;;;;;;;;12.85;63.94;97229.22;4260274;27;5659;-61
2023/12/29 12:06:54;;;;;;;;;;;;;;;12.83;64.00;97240.84;4252399;27;5588;-63
2023/12/29 12:09:16;;;;;;;;;;;;;;;12.83;63.86;97230.25;4253463;27;5610;-63
2023/12/29 12:11:45;;;;;;;;;;;;;;;12.85;64.02;97230.03;4257509;27;5650;-62
2023/12/29 12:13:49;;;;;;;;;;;;;;;12.85;63.79;97226.56;4250615;27;5870;-62
2023/12/29 12:15:51;;;;;;;;;;;;;;;12.86;63.94;97228.22;4253788;27;5589;-63
2023/12/29 12:17:54;;;;;;;;;;;;;;;12.85;63.54;97216.78;4250984;27;5835;-62
2023/12/29 12:19:59;;;;;;;;;;;;;;;12.86;63.88;97217.59;4257039;27;5560;-62
2023/12/29 12:22:03;;;;;;;;;;;;;;;12.87;63.77;97211.28;4259861;27;5655;-62
2023/12/29 12:24:05;;;;;;;;;;;;;;;12.90;63.59;97216.19;4248859;27;5629;-65
2023/12/29 12:26:10;;;;;;;;;;;;;;;12.93;63.41;97207.84;4251056;27;5733;-66
2023/12/29 12:28:15;;;;;;;;;;;;;;;12.96;63.35;97200.28;4253957;27;5804;-68
2023/12/29 12:30:20;;;;;;;;;;;;;;;13.01;63.19;97197.03;4259912;27;5712;-67
2023/12/29 12:32:22;;;;;;;;;;;;;;;13.02;63.08;97196.00;4255057;27;5617;-67
2023/12/29 12:34:26;;;;;;;;;;;;;;;13.04;63.11;97196.66;4253592;27;5763;-66
2023/12/29 12:36:28;;;;;;;;;;;;;;;13.04;63.36;97196.66;4253774;27;5781;-64
2023/12/29 12:38:33;;;;;;;;;;;;;;;13.07;63.38;97190.94;4259989;27;5567;-64
2023/12/29 12:40:37;;;;;;;;;;;;;;;13.09;63.10;97183.59;4253164;27;5110;-64
2023/12/29 12:42:40;;;;;;;;;;;;;;;13.11;63.30;97186.88;4258225;27;5944;-61
2023/12/29 12:44:50;;;;;;;;;;;;;;;13.13;63.26;97187.47;4257665;27;5567;-61
2023/12/29 12:47:01;;;;;;;;;;;;;;;13.14;62.98;97186.50;4254207;27;5689;-65
2023/12/29 12:49:05;;;;;;;;;;;;;;;13.14;63.05;97189.16;4259491;27;5586;-67
2023/12/29 12:51:08;;;;;;;;;;;;;;;13.15;63.03;97182.00;4253009;27;6931;-63
2023/12/29 12:53:19;;;;;;;;;;;;;;;13.15;62.89;97185.47;4265612;27;5845;-62
2023/12/29 12:55:22;;;;;;;;;;;;;;;13.16;62.74;97186.28;4260731;27;5785;-67
2023/12/29 12:57:26;;;;;;;;;;;;;;;13.17;62.70;97180.78;4261788;27;6477;-64
2023/12/29 12:59:29;;;;;;;;;;;;;;;13.18;62.55;97170.97;4256139;27;5673;-66
2023/12/29 13:01:37;;;;;;;;;;;;;;;13.20;62.83;97158.34;4252253;27;5828;-64
2023/12/29 13:03:41;;;;;;;;;;;;;;;13.21;62.72;97155.47;4258354;27;5673;-67
2023/12/29 13:05:44;;;;;;;;;;;;;;;13.19;62.54;97156.72;4250638;27;5599;-67
2023/12/29 13:07:48;;;;;;;;;;;;;;;13.18;62.25;97163.81;4252821;27;5795;-69
2023/12/29 13:09:51;;;;;;;;;;;;;;;13.16;62.33;97157.91;4257846;27;5598;-64
2023/12/29 13:12:08;;;;;;;;;;;;;;;13.17;62.40;97161.38;4255296;27;5681;-73
2023/12/29 13:14:20;;;;;;;;;;;;;;;13.18;62.26;97155.84;4251155;27;6268;-66
2023/12/29 13:16:31;;;;;;;;;;;;;;;13.20;62.17;97147.72;4251489;27;6435;-68
2023/12/29 13:18:36;;;;;;;;;;;;;;;13.18;62.47;97145.25;4262202;27;5560;-67
2023/12/29 13:20:45;;;;;;;;;;;;;;;13.19;62.23;97144.25;4253544;27;5665;-68
2023/12/29 13:22:50;;;;;;;;;;;;;;;13.20;62.18;97145.06;4261866;27;5618;-66
2023/12/29 13:24:54;;;;;;;;;;;;;;;13.20;62.07;97137.91;4259004;27;5721;-70
2023/12/29 13:27:03;;;;;;;;;;;;;;;13.20;62.27;97137.09;4253419;27;5705;-70
2023/12/29 13:29:07;;;;;;;;;;;;;;;13.23;62.08;97139.34;4258392;27;5762;-65
2023/12/29 13:31:14;;;;;;;;;;;;;;;13.25;62.12;97143.47;4266982;27;5587;-64
2023/12/29 13:33:27;;;;;;;;;;;;;;;13.24;62.21;97139.13;4259225;27;5647;-65
2023/12/29 13:35:38;;;;;;;;;;;;;;;13.25;61.96;97134.66;4255598;27;5690;-65
2023/12/29 13:37:48;;;;;;;;;;;;;;;13.28;62.08;97134.28;4253278;27;5653;-65
2023/12/29 13:39:57;;;;;;;;;;;;;;;13.30;61.98;97145.50;4257943;27;5839;-66
2023/12/29 13:42:03;;;;;;;;;;;;;;;13.30;61.96;97138.34;4256228;27;5670;-66
2023/12/29 13:44:07;;;;;;;;;;;;;;;13.32;62.01;97135.50;4259546;27;5721;-65
2023/12/29 13:46:11;;;;;;;;;;;;;;;13.30;61.91;97138.34;4251692;27;5662;-65
2023/12/29 13:48:15;;;;;;;;;;;;;;;13.31;61.87;97144.47;4250911;27;5654;-65
2023/12/29 13:50:17;;;;;;;;;;;;;;;13.31;62.05;97145.28;4262014;27;6300;-65
2023/12/29 13:52:22;;;;;;;;;;;;;;;13.31;61.81;97141.81;4257204;27;5617;-65
2023/12/29 13:54:25;;;;;;;;;;;;;;;13.29;62.26;97142.03;4253854;27;5809;-66
2023/12/29 13:56:28;;;;;;;;;;;;;;;13.28;61.98;97137.75;4257399;27;5633;-66
2023/12/29 13:58:31;;;;;;;;;;;;;;;13.27;62.04;97141.41;4255741;27;5599;-66
2023/12/29 14:00:37;;;;;;;;;;;;;;;13.27;62.29;97137.94;4250720;27;5579;-65
2023/12/29 14:02:41;;;;;;;;;;;;;;;13.26;62.20;97147.75;4250776;27;5578;-65
2023/12/29 14:04:45;;;;;;;;;;;;;;;13.24;62.50;97144.44;4253924;27;5576;-65
2023/12/29 14:06:55;;;;;;;;;;;;;;;13.24;62.59;97141.78;4251687;27;5629;-65
2023/12/29 14:08:59;;;;;;;;;;;;;;;13.22;62.60;97130.56;4253549;27;6544;-66
2023/12/29 14:11:07;;;;;;;;;;;;;;;13.20;62.58;97126.47;4253459;27;5590;-65
2023/12/29 14:13:13;;;;;;;;;;;;;;;13.19;62.51;97130.16;4256371;27;5707;-65
2023/12/29 14:15:16;;;;;;;;;;;;;;;13.16;62.86;97123.41;4254133;27;5600;-65
2023/12/29 14:17:21;;;;;;;;;;;;;;;13.14;62.86;97138.72;4251607;27;5764;-65
2023/12/29 14:19:23;;;;;;;;;;;;;;;13.12;62.65;97135.41;4253018;27;5844;-65
2023/12/29 14:21:29;;;;;;;;;;;;;;;13.11;63.21;97141.75;4251039;27;5586;-65
2023/12/29 14:23:31;;;;;;;;;;;;;;;13.10;62.77;97132.16;4255594;27;5709;-62
2023/12/29 14:25:37;;;;;;;;;;;;;;;13.10;62.82;97140.91;4256497;27;5639;-62
2023/12/29 14:27:40;;;;;;;;;;;;;;;13.11;63.10;97133.78;4255106;27;5759;-62
2023/12/29 14:29:43;;;;;;;;;;;;;;;13.09;63.08;97136.63;4250274;27;5692;-62
2023/12/29 14:31:47;;;;;;;;;;;;;;;13.05;62.97;97137.25;4250311;27;5856;-62
2023/12/29 14:33:50;;;;;;;;;;;;;;;13.06;63.06;97136.22;4256581;27;5595;-62
2023/12/29 14:35:53;;;;;;;;;;;;;;;13.08;63.02;97137.66;4250530;27;5834;-62
2023/12/29 14:37:56;;;;;;;;;;;;;;;13.10;63.32;97137.44;4253328;27;5793;-63
2023/12/29 14:39:59;;;;;;;;;;;;;;;13.13;63.25;97137.03;4252895;27;5824;-64
2023/12/29 14:42:04;;;;;;;;;;;;;;;13.13;63.15;97137.03;4259330;27;5570;-65
2023/12/29 14:44:07;;;;;;;;;;;;;;;13.15;63.09;97150.16;4259432;27;5754;-64
2023/12/29 14:46:10;;;;;;;;;;;;;;;13.14;63.43;97141.38;4250575;27;5895;-64
2023/12/29 14:48:14;;;;;;;;;;;;;;;13.17;63.19;97156.06;4249766;27;5681;-64
2023/12/29 14:50:17;;;;;;;;;;;;;;;13.17;63.33;97158.72;4250117;27;5622;-64
2023/12/29 14:52:19;;;;;;;;;;;;;;;13.18;63.46;97150.56;4252319;27;5653;-64
2023/12/29 14:54:23;;;;;;;;;;;;;;;13.17;63.38;97153.41;4256453;27;5650;-63
2023/12/29 14:56:26;;;;;;;;;;;;;;;13.15;63.59;97155.44;4253083;27;5638;-64
2023/12/29 14:58:32;;;;;;;;;;;;;;;13.16;63.34;97154.44;4258445;27;6271;-65
2023/12/29 15:00:35;;;;;;;;;;;;;;;13.15;63.52;97145.66;4249081;27;5599;-65
2023/12/29 15:02:37;;;;;;;;;;;;;;;13.16;63.50;97141.97;4249846;27;5685;-65
2023/12/29 15:04:40;;;;;;;;;;;;;;;13.17;63.64;97140.13;4255335;27;5670;-65
2023/12/29 15:06:42;;;;;;;;;;;;;;;13.17;63.46;97137.47;4258608;27;5670;-65
2023/12/29 15:08:45;;;;;;;;;;;;;;;13.16;63.74;97136.66;4256843;27;5654;-65
2023/12/29 15:10:48;;;;;;;;;;;;;;;13.19;63.62;97133.63;4256527;27;6257;-64
2023/12/29 15:12:51;;;;;;;;;;;;;;;13.19;63.37;97133.63;4252208;27;5728;-65
2023/12/29 15:14:55;;;;;;;;;;;;;;;13.19;63.58;97130.16;4250246;27;5118;-64
2023/12/29 15:16:58;;;;;;;;;;;;;;;13.19;63.51;97140.78;4250439;27;5704;-64
2023/12/29 15:19:03;;;;;;;;;;;;;;;13.18;63.48;97137.28;4249715;27;5623;-65
2023/12/29 15:21:07;;;;;;;;;;;;;;;13.17;63.54;97142.78;4249969;27;6357;-64
2023/12/29 15:23:09;;;;;;;;;;;;;;;13.17;63.55;97138.28;4258118;27;5694;-65
2023/12/29 15:25:12;;;;;;;;;;;;;;;13.16;63.43;97141.16;4249404;27;5897;-65
2023/12/29 15:27:15;;;;;;;;;;;;;;;13.15;63.60;97135.03;4251713;27;5862;-65
2023/12/29 15:29:17;;;;;;;;;;;;;;;13.15;63.70;97137.69;4249711;27;5673;-64
2023/12/29 15:31:21;;;;;;;;;;;;;;;13.17;63.45;97140.13;4249873;27;5966;-65
2023/12/29 15:33:25;;;;;;;;;;;;;;;13.15;63.31;97140.34;4255334;27;5741;-64
2023/12/29 15:35:29;;;;;;;;;;;;;;;13.16;63.66;97141.97;4251111;27;5665;-65
2023/12/29 15:37:32;;;;;;;;;;;;;;;13.16;63.45;97136.66;4236723;27;5915;-64
2023/12/29 15:39:35;;;;;;;;;;;;;;;13.16;63.46;97141.97;4251277;27;7207;-65
2023/12/29 15:41:40;;;;;;;;;;;;;;;13.17;63.67;97138.28;4254981;27;5795;-64
2023/12/29 15:43:44;;;;;;;;;;;;;;;13.12;63.60;97120.31;4252707;27;5847;-65
2023/12/29 15:45:46;;;;;;;;;;;;;;;13.11;63.64;97116.00;4249173;27;5649;-65
2023/12/29 15:47:51;;;;;;;;;;;;;;;13.10;63.60;97110.91;4258161;27;5649;-65
2023/12/29 15:49:54;;;;;;;;;;;;;;;13.11;63.75;97107.22;4249112;27;5673;-65
2023/12/29 15:51:58;;;;;;;;;;;;;;;13.11;63.86;97109.88;4249359;27;5657;-65
2023/12/29 15:54:01;;;;;;;;;;;;;;;13.08;63.51;97108.47;4256268;27;5630;-65
2023/12/29 15:56:04;;;;;;;;;;;;;;;13.09;63.86;97103.97;4249317;27;5582;-65
2023/12/29 15:58:08;;;;;;;;;;;;;;;13.08;63.70;97102.34;4252207;27;5649;-65
2023/12/29 16:00:13;;;;;;;;;;;;;;;13.08;63.92;97102.34;4255458;27;5576;-65
2023/12/29 16:02:16;;;;;;;;;;;;;;;13.08;63.70;97102.34;4263031;27;5085;-64
2023/12/29 16:04:20;;;;;;;;;;;;;;;13.07;63.62;97101.53;4258940;27;5664;-64
2023/12/29 16:06:24;;;;;;;;;;;;;;;13.08;63.69;97107.66;4260170;27;5685;-65
2023/12/29 16:08:27;;;;;;;;;;;;;;;13.07;63.59;97106.00;4252537;27;5602;-65
2023/12/29 16:10:34;;;;;;;;;;;;;;;13.08;63.67;97112.94;4254735;27;5627;-65
2023/12/29 16:12:38;;;;;;;;;;;;;;;13.08;63.97;97107.66;4256222;27;5854;-65
2023/12/29 16:14:41;;;;;;;;;;;;;;;13.07;63.85;97101.53;4258090;27;5551;-64
2023/12/29 16:16:44;;;;;;;;;;;;;;;13.07;63.85;97103.34;4261195;27;5945;-65
2023/12/29 16:18:47;;;;;;;;;;;;;;;13.07;63.83;97111.31;4258080;27;5575;-65
2023/12/29 16:20:52;;;;;;;;;;;;;;;13.07;63.75;97111.31;4254247;27;5669;-65
2023/12/29 16:22:55;;;;;;;;;;;;;;;13.05;63.52;97110.72;4252892;27;5768;-65
2023/12/29 16:24:58;;;;;;;;;;;;;;;13.06;63.78;97120.31;4260942;27;5605;-65
2023/12/29 16:27:00;;;;;;;;;;;;;;;13.07;63.72;97121.94;4257738;27;5718;-64
2023/12/29 16:29:03;;;;;;;;;;;;;;;13.07;63.69;97129.91;4258860;27;5571;-64
2023/12/29 16:31:09;;;;;;;;;;;;;;;13.07;63.69;97121.94;4265660;27;5661;-64
2023/12/29 16:33:12;;;;;;;;;;;;;;;13.09;63.69;97122.53;4259795;27;5741;-64
2023/12/29 16:35:15;;;;;;;;;;;;;;;13.09;63.73;97125.19;4254212;27;5591;-64
2023/12/29 16:37:20;;;;;;;;;;;;;;;13.08;63.40;97120.91;4252311;27;5661;-64
2023/12/29 16:39:23;;;;;;;;;;;;;;;13.08;63.39;97119.06;4260401;27;5580;-65
2023/12/29 16:41:26;;;;;;;;;;;;;;;13.07;63.47;97101.53;4252251;27;6394;-65
2023/12/29 16:43:29;;;;;;;;;;;;;;;13.09;63.65;97101.31;4252365;27;5638;-65
2023/12/29 16:45:33;;;;;;;;;;;;;;;13.09;63.44;97099.47;4251068;27;5681;-65
2023/12/29 16:47:35;;;;;;;;;;;;;;;13.09;63.46;97106.63;4252231;27;5956;-65
2023/12/29 16:49:39;;;;;;;;;;;;;;;13.10;63.81;97100.28;4257757;27;5589;-65
2023/12/29 16:51:41;;;;;;;;;;;;;;;13.10;63.66;97110.91;4258155;27;5813;-65
2023/12/29 16:53:48;;;;;;;;;;;;;;;13.08;63.58;97108.47;4251839;27;5661;-65
2023/12/29 16:56:00;;;;;;;;;;;;;;;13.06;63.75;97112.34;4260139;27;5696;-65
2023/12/29 16:58:04;;;;;;;;;;;;;;;13.06;63.72;97107.03;4260461;27;5570;-65
2023/12/29 17:00:09;;;;;;;;;;;;;;;13.03;63.99;97104.78;4252026;27;5878;-65
2023/12/29 17:02:13;;;;;;;;;;;;;;;13.01;64.03;97102.31;4254800;27;5618;-65
2023/12/29 17:04:14;;;;;;;;;;;;;;;12.98;63.78;97096.59;4262870;27;5583;-65
2023/12/29 17:06:18;;;;;;;;;;;;;;;12.97;63.97;97097.63;4255320;27;5586;-65
2023/12/29 17:08:21;;;;;;;;;;;;;;;12.96;64.11;97102.09;4251522;27;5669;-65
2023/12/29 17:10:25;;;;;;;;;;;;;;;12.95;63.90;97100.47;4254774;27;5730;-65
2023/12/29 17:12:28;;;;;;;;;;;;;;;12.96;64.00;97101.28;4253805;27;6124;-65
2023/12/29 17:14:31;;;;;;;;;;;;;;;12.95;64.07;97097.81;4261861;27;5785;-65
2023/12/29 17:16:34;;;;;;;;;;;;;;;12.95;64.09;97105.78;4252353;27;5717;-65
2023/12/29 17:18:37;;;;;;;;;;;;;;;12.95;64.14;97097.81;4256713;27;6037;-72
2023/12/29 17:20:40;;;;;;;;;;;;;;;12.94;63.75;97105.97;4243862;27;5673;-68
2023/12/29 17:22:43;;;;;;;;;;;;;;;12.92;63.80;97110.69;4252537;27;5603;-65
2023/12/29 17:24:46;;;;;;;;;;;;;;;12.91;63.88;97112.50;4252187;27;5713;-70
2023/12/29 17:26:51;;;;;;;;;;;;;;;12.91;64.00;97106.38;4250848;27;5630;-68
2023/12/29 17:28:54;;;;;;;;;;;;;;;12.90;64.04;97110.84;4251256;27;5681;-70
2023/12/29 17:30:57;;;;;;;;;;;;;;;12.90;63.89;97107.38;4252121;27;5664;-71
2023/12/29 17:33:00;;;;;;;;;;;;;;;12.88;63.84;97107.59;4258612;27;5867;-70
2023/12/29 17:35:04;;;;;;;;;;;;;;;12.85;63.78;97112.47;4233659;27;5720;-69
2023/12/29 17:37:08;;;;;;;;;;;;;;;12.87;63.73;97121.06;4252825;27;5650;-69
2023/12/29 17:39:11;;;;;;;;;;;;;;;12.90;64.10;97125.97;4251412;27;5715;-69
2023/12/29 17:41:14;;;;;;;;;;;;;;;12.91;63.81;97116.97;4254829;27;5592;-64
2023/12/29 17:43:18;;;;;;;;;;;;;;;12.90;64.07;97113.50;4243783;27;5674;-62
2023/12/29 17:45:20;;;;;;;;;;;;;;;12.90;63.99;97104.72;4255964;27;5686;-63
2023/12/29 17:47:23;;;;;;;;;;;;;;;12.90;63.70;97112.69;4247344;27;5670;-62
2023/12/29 17:49:28;;;;;;;;;;;;;;;12.87;63.77;97103.31;4262239;27;5595;-62
2023/12/29 17:51:31;;;;;;;;;;;;;;;12.86;63.76;97103.50;4250959;27;5579;-63
2023/12/29 17:53:34;;;;;;;;;;;;;;;12.86;63.74;97108.81;4255164;27;5698;-63
2023/12/29 17:55:37;;;;;;;;;;;;;;;12.87;63.77;97115.75;4254882;27;5610;-63
2023/12/29 17:57:41;;;;;;;;;;;;;;;12.88;63.70;97120.03;4256845;27;5701;-63
2023/12/29 17:59:47;;;;;;;;;;;;;;;12.87;63.88;97121.06;4250841;27;5594;-63
2023/12/29 18:01:51;;;;;;;;;;;;;;;12.86;63.82;97120.25;4257627;27;5654;-63
2023/12/29 18:03:53;;;;;;;;;;;;;;;12.85;63.95;97115.13;4250755;27;5840;-63
2023/12/29 18:05:56;;;;;;;;;;;;;;;12.84;64.02;97119.63;4255931;27;5729;-63
2023/12/29 18:07:59;;;;;;;;;;;;;;;12.84;63.83;97116.97;4251754;27;6458;-63
2023/12/29 18:10:03;;;;;;;;;;;;;;;12.85;64.12;97126.56;4255421;27;5629;-63
2023/12/29 18:12:08;;;;;;;;;;;;;;;12.85;64.07;97128.41;4254624;27;5578;-62
2023/12/29 18:14:10;;;;;;;;;;;;;;;12.82;64.05;97135.75;4251988;27;5653;-62
2023/12/29 18:16:15;;;;;;;;;;;;;;;12.85;64.09;97139.00;4251623;27;5590;-63
2023/12/29 18:18:19;;;;;;;;;;;;;;;12.85;63.78;97141.66;4251978;27;5594;-63
2023/12/29 18:20:23;;;;;;;;;;;;;;;12.86;63.99;97146.78;4250847;27;5591;-62
2023/12/29 18:22:26;;;;;;;;;;;;;;;12.86;63.95;97154.72;4253987;27;5626;-63
2023/12/29 18:24:30;;;;;;;;;;;;;;;12.87;63.99;97158.19;4251490;27;6275;-63
2023/12/29 18:26:33;;;;;;;;;;;;;;;12.86;63.84;97140.66;4254852;27;5699;-63
2023/12/29 18:28:38;;;;;;;;;;;;;;;12.85;63.91;97137.19;4255579;27;5621;-62
2023/12/29 18:30:41;;;;;;;;;;;;;;;12.85;63.76;97149.63;4251261;27;5598;-62
2023/12/29 18:32:46;;;;;;;;;;;;;;;12.84;63.98;97143.50;4256824;27;5651;-63
2023/12/29 18:34:48;;;;;;;;;;;;;;;12.85;63.88;97152.28;4252770;27;5788;-63
2023/12/29 18:36:51;;;;;;;;;;;;;;;12.86;63.73;97152.06;4254066;27;5629;-62
2023/12/29 18:38:54;;;;;;;;;;;;;;;12.86;63.87;97146.78;4259714;27;5682;-63
2023/12/29 18:40:57;;;;;;;;;;;;;;;12.87;63.84;97144.94;4251174;27;5914;-63
2023/12/29 18:42:59;;;;;;;;;;;;;;;12.87;63.90;97148.41;4251351;27;5690;-63
2023/12/29 18:45:03;;;;;;;;;;;;;;;12.87;63.72;97145.75;4251270;27;5578;-62
2023/12/29 18:47:06;;;;;;;;;;;;;;;12.89;63.67;97149.03;4254341;27;5571;-62